ENLK

Leknes Airport

Leknes, Norway
METAR ENLK 230950Z 14010KT 110V160 CAVOK M02/M12 Q1027
Observed Flight Rules
Feb-23 @ 09:50 UTC (40 minutes ago) Visual Flight Rules
Wind Visibility Clouds
140° at 10 knots 10,000+ meters
  • Clear skies
Temperatures Readings
Current -2°C / 28°F
Dewpoint -12°C / 10°F
Humidity 47%
Altimeter 30.32" Hg
Pressure 1027 hPa
Elevation 26
METAR ENLK 230950Z 14010KT 110V160 CAVOK M02/M12 Q1027
Observed Flight Rules
Feb-23 @ 09:50 UTC
(40 minutes ago)
VFR
Wind Visibility
140° at 10 knots 10,000+ meters
Clouds
  • Clear skies
Temperature Dewpoint
-2°C / 28°F -12°C / 10°F
Humidity Altimeter Pressure
47% 30.32" Hg 1027 hPa